createdAt,value
2018-12-29T00:00:44.398Z,98.10
2018-12-29T00:01:44.480Z,98.00
2018-12-29T00:02:44.600Z,98.52
2018-12-29T00:03:44.685Z,98.52
2018-12-29T00:04:44.803Z,98.83
2018-12-29T00:05:44.897Z,98.27
2018-12-29T00:06:44.987Z,98.93
2018-12-29T00:07:45.104Z,99.04
2018-12-29T00:08:45.211Z,99.24
2018-12-29T00:09:45.311Z,98.99
2018-12-29T00:10:45.389Z,99.04
2018-12-29T00:11:45.493Z,99.24
2018-12-29T00:12:45.619Z,98.93
2018-12-29T00:13:45.818Z,98.37
2018-12-29T00:14:45.845Z,98.00
2018-12-29T00:15:45.925Z,98.21
2018-12-29T00:16:46.023Z,98.21
2018-12-29T00:17:46.139Z,98.21
2018-12-29T00:18:46.222Z,98.00
2018-12-29T00:19:46.349Z,98.16
2018-12-29T00:20:46.442Z,98.52
2018-12-29T00:21:46.640Z,98.62
2018-12-29T00:22:46.644Z,98.83
2018-12-29T00:23:46.725Z,98.68
2018-12-29T00:24:46.848Z,98.62
2018-12-29T00:25:47.188Z,98.41
2018-12-29T00:26:47.012Z,98.62
2018-12-29T00:27:47.133Z,98.37
2018-12-29T00:28:47.232Z,98.31
2018-12-29T00:29:47.429Z,98.37
2018-12-29T00:30:47.433Z,98.31
2018-12-29T00:31:47.520Z,98.62
2018-12-29T00:32:47.624Z,98.37
2018-12-29T00:33:47.709Z,98.37
2018-12-29T00:34:47.837Z,98.27
2018-12-29T00:35:47.944Z,98.06
2018-12-29T00:36:48.026Z,97.54
2018-12-29T00:37:48.160Z,97.64
2018-12-29T00:38:48.191Z,97.75
2018-12-29T00:39:48.330Z,97.96
2018-12-29T00:40:48.435Z,97.64
2018-12-29T00:41:48.513Z,97.64
2018-12-29T00:42:48.615Z,97.33
2018-12-29T00:43:48.736Z,97.75
2018-12-29T00:44:48.865Z,97.44
2018-12-29T00:45:48.973Z,97.75
2018-12-29T00:46:49.116Z,97.75
2018-12-29T00:47:49.148Z,97.54
2018-12-29T00:48:49.267Z,97.44
2018-12-29T00:49:49.393Z,97.44
2018-12-29T00:50:49.488Z,97.23
2018-12-29T00:51:49.553Z,97.44
2018-12-29T00:52:49.669Z,97.85
2018-12-29T00:53:49.816Z,97.33
2018-12-29T00:54:50.039Z,97.33
2018-12-29T00:55:49.980Z,97.44
2018-12-29T00:56:50.063Z,97.13
2018-12-29T00:57:50.177Z,96.92
2018-12-29T00:58:50.297Z,97.33
2018-12-29T00:59:50.402Z,97.02
2018-12-29T01:00:50.495Z,97.33
2018-12-29T01:01:50.577Z,96.92
2018-12-29T01:02:50.767Z,96.92
2018-12-29T01:03:50.797Z,97.54
2018-12-29T01:04:50.887Z,97.33
2018-12-29T01:05:51.033Z,97.13
2018-12-29T01:06:51.086Z,97.13
2018-12-29T01:07:51.164Z,97.64
2018-12-29T01:08:51.306Z,97.85
2018-12-29T01:09:51.391Z,97.75
2018-12-29T01:10:51.607Z,97.33
2018-12-29T01:11:51.588Z,96.61
2018-12-29T01:12:51.684Z,96.92
2018-12-29T01:13:51.784Z,97.13
2018-12-29T01:14:51.911Z,97.33
2018-12-29T01:15:52.002Z,97.08
2018-12-29T01:16:52.085Z,97.44
2018-12-29T01:17:52.188Z,97.23
2018-12-29T01:18:52.353Z,97.19
2018-12-29T01:19:52.377Z,97.02
2018-12-29T01:20:52.513Z,97.13
2018-12-29T01:21:52.586Z,97.13
2018-12-29T01:22:52.686Z,96.92
2018-12-29T01:23:52.802Z,97.23
2018-12-29T01:24:52.892Z,97.33
2018-12-29T01:25:53.037Z,97.33
2018-12-29T01:26:53.140Z,97.23
2018-12-29T01:27:53.243Z,97.13
2018-12-29T01:28:53.319Z,97.33
2018-12-29T01:29:53.399Z,97.13
2018-12-29T01:30:53.544Z,97.23
2018-12-29T01:31:53.583Z,97.02
2018-12-29T01:32:53.701Z,97.13
2018-12-29T01:33:53.817Z,97.33
2018-12-29T01:34:53.911Z,97.23
2018-12-29T01:35:54.175Z,97.13
2018-12-29T01:36:54.089Z,97.23
2018-12-29T01:37:54.202Z,97.44
2018-12-29T01:38:54.319Z,97.33
2018-12-29T01:39:54.403Z,97.23
2018-12-29T01:40:54.541Z,97.23
2018-12-29T01:41:54.600Z,96.92
2018-12-29T01:42:54.681Z,96.72
2018-12-29T01:43:54.977Z,97.13
2018-12-29T01:44:54.908Z,97.13
2018-12-29T01:45:55.033Z,96.72
2018-12-29T01:46:55.112Z,96.72
2018-12-29T01:47:55.196Z,96.82
2018-12-29T01:48:55.314Z,96.92
2018-12-29T01:49:55.410Z,96.92
2018-12-29T01:50:55.540Z,96.61
2018-12-29T01:51:55.747Z,96.92
2018-12-29T01:52:55.716Z,96.72
2018-12-29T01:53:55.841Z,96.77
2018-12-29T01:54:55.907Z,96.77
2018-12-29T01:55:56.050Z,96.36
2018-12-29T01:56:56.143Z,96.41
2018-12-29T01:57:56.226Z,96.36
2018-12-29T01:58:56.345Z,96.67
2018-12-29T01:59:56.477Z,96.61
2018-12-29T02:00:56.495Z,96.61
2018-12-29T02:01:56.629Z,97.02
2018-12-29T02:02:56.965Z,96.67
2018-12-29T02:03:56.844Z,96.67
2018-12-29T02:04:56.925Z,96.82
2018-12-29T02:05:57.052Z,97.54
2018-12-29T02:06:57.144Z,97.64
2018-12-29T02:07:57.233Z,97.33
2018-12-29T02:08:57.642Z,97.23
2018-12-29T02:09:57.632Z,97.75
2018-12-29T02:10:57.758Z,97.54
2018-12-29T02:11:57.849Z,97.23
2018-12-29T02:12:57.915Z,97.33
2018-12-29T02:13:58.049Z,97.23
2018-12-29T02:14:58.131Z,97.13
2018-12-29T02:15:58.260Z,97.13
2018-12-29T02:16:58.465Z,97.33
2018-12-29T02:17:58.413Z,97.23
2018-12-29T02:18:58.547Z,96.92
2018-12-29T02:19:58.626Z,96.92
2018-12-29T02:20:58.747Z,97.02
2018-12-29T02:21:58.842Z,97.23
2018-12-29T02:22:58.931Z,97.44
2018-12-29T02:23:59.032Z,97.33
2018-12-29T02:24:59.260Z,97.23
2018-12-29T02:25:59.366Z,97.33
2018-12-29T02:26:59.469Z,97.02
2018-12-29T02:27:59.639Z,97.02
2018-12-29T02:28:59.681Z,97.23
2018-12-29T02:29:59.756Z,97.13
2018-12-29T02:30:59.904Z,97.33
2018-12-29T02:32:00.004Z,97.13
2018-12-29T02:33:00.126Z,96.92
2018-12-29T02:34:00.275Z,96.82
2018-12-29T02:35:00.295Z,97.13
2018-12-29T02:36:00.414Z,96.92
2018-12-29T02:37:00.524Z,97.02
2018-12-29T02:38:00.619Z,96.92
2018-12-29T02:39:00.741Z,97.33
2018-12-29T02:40:00.827Z,97.02
2018-12-29T02:41:00.969Z,97.54
2018-12-29T02:42:01.024Z,97.44
2018-12-29T02:43:01.137Z,96.92
2018-12-29T02:44:01.273Z,97.02
2018-12-29T02:45:01.345Z,97.23
2018-12-29T02:46:01.476Z,97.23
2018-12-29T02:47:01.585Z,97.02
2018-12-29T02:48:01.652Z,97.23
2018-12-29T02:49:01.833Z,97.33
2018-12-29T02:50:01.975Z,97.13
2018-12-29T02:51:02.000Z,97.33
2018-12-29T02:52:02.142Z,97.13
2018-12-29T02:53:02.199Z,97.23
2018-12-29T02:54:02.343Z,97.13
2018-12-29T02:55:02.427Z,97.13
2018-12-29T02:56:02.545Z,97.02
2018-12-29T02:57:02.668Z,96.92
2018-12-29T02:58:03.036Z,97.02
2018-12-29T02:59:02.830Z,97.23
2018-12-29T03:00:02.878Z,97.13
2018-12-29T03:01:02.996Z,97.33
2018-12-29T03:02:03.098Z,97.23
2018-12-29T03:03:03.193Z,96.92
2018-12-29T03:04:03.334Z,96.92
2018-12-29T03:05:03.396Z,96.92
2018-12-29T03:06:03.609Z,97.13
2018-12-29T03:07:03.703Z,97.33
2018-12-29T03:08:03.761Z,97.33
2018-12-29T03:09:03.870Z,97.38
2018-12-29T03:10:04.008Z,97.13
2018-12-29T03:11:04.120Z,97.13
2018-12-29T03:12:04.256Z,97.02
2018-12-29T03:13:04.335Z,96.92
2018-12-29T03:14:04.485Z,96.61
2018-12-29T03:15:04.526Z,97.13
2018-12-29T03:16:04.668Z,96.76
2018-12-29T03:17:04.778Z,97.28
2018-12-29T03:18:04.950Z,97.33
2018-12-29T03:19:04.999Z,97.13
2018-12-29T03:20:05.095Z,96.86
2018-12-29T03:21:05.168Z,97.07
2018-12-29T03:22:05.364Z,96.76
2018-12-29T03:23:05.420Z,96.97
2018-12-29T03:24:05.541Z,96.86
2018-12-29T03:25:05.668Z,97.17
2018-12-29T03:26:05.746Z,96.76
2018-12-29T03:27:05.856Z,96.66
2018-12-29T03:28:05.961Z,97.07
2018-12-29T03:29:06.087Z,97.54
2018-12-29T03:30:06.254Z,97.38
2018-12-29T03:31:06.425Z,97.07
2018-12-29T03:32:06.446Z,97.28
2018-12-29T03:33:06.527Z,97.49
2018-12-29T03:34:06.647Z,97.38
2018-12-29T03:35:06.763Z,97.38
2018-12-29T03:36:06.861Z,97.38
2018-12-29T03:37:07.009Z,97.07
2018-12-29T03:38:07.078Z,97.07
2018-12-29T03:39:07.262Z,97.59
2018-12-29T03:40:07.301Z,97.49
2018-12-29T03:41:07.390Z,97.38
2018-12-29T03:42:07.788Z,97.07
2018-12-29T03:43:07.615Z,96.76
2018-12-29T03:44:07.706Z,97.02
2018-12-29T03:45:07.849Z,97.07
2018-12-29T03:46:07.940Z,96.97
2018-12-29T03:47:08.154Z,96.72
2018-12-29T03:48:08.185Z,96.97
2018-12-29T03:49:08.242Z,96.97
2018-12-29T03:50:08.352Z,97.17
2018-12-29T03:51:08.461Z,97.02
2018-12-29T03:52:08.608Z,97.49
2018-12-29T03:53:08.674Z,97.38
2018-12-29T03:54:08.782Z,97.17
2018-12-29T03:55:08.943Z,96.86
2018-12-29T03:56:08.962Z,97.49
2018-12-29T03:57:09.133Z,97.49
2018-12-29T03:58:09.208Z,97.38
2018-12-29T03:59:09.307Z,97.59
2018-12-29T04:00:09.419Z,96.86
2018-12-29T04:01:09.514Z,98.00
2018-12-29T04:02:09.655Z,97.28
2018-12-29T04:03:09.767Z,96.97
2018-12-29T04:04:09.878Z,96.97
2018-12-29T04:05:09.986Z,97.17
2018-12-29T04:06:10.076Z,97.17
2018-12-29T04:07:10.204Z,97.59
2018-12-29T04:08:10.268Z,97.69
2018-12-29T04:09:10.392Z,97.38
2018-12-29T04:10:10.517Z,97.59
2018-12-29T04:11:10.640Z,97.28
2018-12-29T04:12:10.816Z,97.59
2018-12-29T04:13:10.820Z,97.79
2018-12-29T04:14:10.945Z,97.59
2018-12-29T04:15:11.069Z,97.69
2018-12-29T04:16:11.171Z,97.69
2018-12-29T04:17:11.265Z,97.28
2018-12-29T04:18:11.389Z,97.59
2018-12-29T04:19:11.480Z,97.07
2018-12-29T04:20:11.697Z,97.28
2018-12-29T04:21:11.749Z,97.28
2018-12-29T04:22:11.834Z,97.07
2018-12-29T04:23:11.985Z,97.07
2018-12-29T04:24:12.034Z,97.07
2018-12-29T04:25:12.175Z,97.38
2018-12-29T04:26:12.281Z,97.28
2018-12-29T04:27:12.387Z,96.86
2018-12-29T04:28:12.621Z,96.66
2018-12-29T04:29:12.586Z,97.17
2018-12-29T04:30:12.696Z,96.86
2018-12-29T04:31:12.804Z,97.02
2018-12-29T04:32:12.919Z,96.76
2018-12-29T04:33:13.038Z,97.07
2018-12-29T04:34:13.127Z,96.76
2018-12-29T04:35:13.250Z,97.38
2018-12-29T04:36:13.378Z,97.59
2018-12-29T04:37:13.438Z,96.97
2018-12-29T04:38:13.576Z,97.38
2018-12-29T04:39:13.665Z,97.28
2018-12-29T04:40:13.781Z,97.28
2018-12-29T04:41:13.876Z,96.55
2018-12-29T04:42:14.015Z,96.86
2018-12-29T04:43:14.119Z,96.76
2018-12-29T04:44:14.267Z,97.17
2018-12-29T04:45:14.372Z,96.97
2018-12-29T04:46:14.426Z,96.97
2018-12-29T04:47:14.530Z,97.07
2018-12-29T04:48:15.018Z,96.34
2018-12-29T04:49:14.741Z,97.49
2018-12-29T04:50:14.896Z,97.28
2018-12-29T04:51:14.977Z,97.59
2018-12-29T04:52:15.099Z,97.59
2018-12-29T04:53:15.312Z,96.86
2018-12-29T04:54:15.296Z,97.17
2018-12-29T04:55:15.418Z,97.28
2018-12-29T04:56:15.510Z,97.28
2018-12-29T04:57:15.617Z,97.59
2018-12-29T04:58:16.041Z,97.17
2018-12-29T04:59:15.818Z,97.38
2018-12-29T05:00:15.937Z,97.38
2018-12-29T05:01:16.151Z,97.79
2018-12-29T05:02:16.152Z,97.49
2018-12-29T05:03:16.308Z,97.07
2018-12-29T05:04:16.358Z,97.59
2018-12-29T05:05:16.497Z,96.86
2018-12-29T05:06:16.604Z,97.49
2018-12-29T05:07:16.713Z,97.79
2018-12-29T05:08:16.965Z,97.89
2018-12-29T05:09:16.989Z,97.38
2018-12-29T05:10:17.016Z,97.69
2018-12-29T05:11:17.132Z,97.59
2018-12-29T05:12:17.255Z,97.89
2018-12-29T05:13:17.404Z,97.59
2018-12-29T05:14:17.497Z,97.59
2018-12-29T05:15:17.579Z,97.59
2018-12-29T05:16:17.685Z,96.97
2018-12-29T05:17:17.834Z,97.07
2018-12-29T05:18:17.898Z,96.97
2018-12-29T05:19:18.016Z,97.28
2018-12-29T05:20:18.098Z,97.28
2018-12-29T05:21:18.463Z,97.38
2018-12-29T05:22:18.339Z,97.38
2018-12-29T05:23:18.450Z,97.28
2018-12-29T05:24:18.660Z,97.49
2018-12-29T05:25:18.722Z,96.55
2018-12-29T05:26:18.859Z,96.86
2018-12-29T05:27:18.916Z,96.76
2018-12-29T05:28:19.023Z,96.66
2018-12-29T05:29:19.137Z,96.66
2018-12-29T05:30:19.236Z,96.97
2018-12-29T05:31:19.362Z,96.66
2018-12-29T05:32:19.450Z,96.55
2018-12-29T05:33:19.598Z,96.97
2018-12-29T05:34:19.802Z,96.97
2018-12-29T05:35:19.778Z,96.97
2018-12-29T05:36:19.894Z,96.66
2018-12-29T05:37:19.991Z,96.55
2018-12-29T05:38:20.116Z,96.66
2018-12-29T05:39:20.224Z,96.45
2018-12-29T05:40:20.292Z,96.66
2018-12-29T05:41:20.433Z,96.55
2018-12-29T05:42:20.645Z,96.34
2018-12-29T05:43:20.643Z,96.76
2018-12-29T05:44:20.752Z,96.76
2018-12-29T05:45:20.828Z,96.66
2018-12-29T05:46:20.972Z,96.86
2018-12-29T05:47:21.059Z,96.45
2018-12-29T05:48:21.183Z,96.55
2018-12-29T05:49:21.276Z,96.76
2018-12-29T05:50:21.432Z,96.86
2018-12-29T05:51:21.474Z,96.55
2018-12-29T05:52:21.585Z,96.66
2018-12-29T05:53:21.709Z,96.76
2018-12-29T05:54:21.818Z,96.55
2018-12-29T05:55:21.907Z,96.76
2018-12-29T05:56:22.123Z,96.45
2018-12-29T05:57:22.123Z,96.55
2018-12-29T05:58:22.288Z,96.76
2018-12-29T05:59:22.321Z,96.55
2018-12-29T06:00:22.431Z,96.86
2018-12-29T06:01:22.558Z,96.55
2018-12-29T06:02:22.655Z,96.66
2018-12-29T06:03:22.781Z,96.97
2018-12-29T06:04:22.869Z,96.76
2018-12-29T06:05:22.979Z,96.55
2018-12-29T06:06:23.116Z,96.55
2018-12-29T06:07:23.263Z,96.86
2018-12-29T06:08:23.299Z,96.76
2018-12-29T06:09:23.414Z,96.76
2018-12-29T06:10:23.513Z,96.66
2018-12-29T06:11:23.629Z,96.80
2018-12-29T06:12:23.726Z,96.76
2018-12-29T06:13:23.853Z,96.76
2018-12-29T06:14:23.974Z,96.86
2018-12-29T06:15:24.175Z,96.66
2018-12-29T06:16:27.699Z,96.76
2018-12-29T06:17:24.262Z,96.76
2018-12-29T06:18:24.385Z,96.91
2018-12-29T06:19:24.498Z,96.76
2018-12-29T06:20:24.562Z,96.76
2018-12-29T06:21:24.709Z,96.76
2018-12-29T06:22:24.845Z,96.34
2018-12-29T06:23:25.000Z,96.86
2018-12-29T06:24:25.028Z,96.70
2018-12-29T06:25:25.115Z,96.55
2018-12-29T06:26:25.258Z,96.76
2018-12-29T06:27:25.391Z,96.29
2018-12-29T06:28:25.472Z,96.49
2018-12-29T06:29:25.642Z,96.49
2018-12-29T06:30:25.707Z,95.67
2018-12-29T06:31:25.876Z,95.77
2018-12-29T06:32:25.915Z,95.67
2018-12-29T06:33:26.019Z,95.52
2018-12-29T06:34:26.144Z,95.83
2018-12-29T06:35:26.233Z,95.77
2018-12-29T06:36:26.361Z,95.83
2018-12-29T06:37:26.473Z,96.14
2018-12-29T06:38:26.534Z,96.24
2018-12-29T06:39:26.718Z,96.34
2018-12-29T06:40:26.772Z,95.67
2018-12-29T06:41:26.911Z,95.73
2018-12-29T06:42:27.019Z,95.67
2018-12-29T06:43:27.112Z,95.83
2018-12-29T06:44:27.208Z,96.55
2018-12-29T06:45:27.377Z,96.34
2018-12-29T06:46:27.435Z,96.66
2018-12-29T06:47:27.584Z,96.76
2018-12-29T06:48:27.749Z,96.80
2018-12-29T06:49:27.743Z,97.01
2018-12-29T06:50:27.861Z,96.86
2018-12-29T06:51:27.982Z,96.66
2018-12-29T06:52:28.084Z,96.80
2018-12-29T06:53:28.182Z,96.80
2018-12-29T06:54:28.309Z,96.86
2018-12-29T06:55:28.384Z,96.66
2018-12-29T06:56:28.595Z,96.91
2018-12-29T06:57:28.621Z,96.91
2018-12-29T06:58:28.727Z,96.80
2018-12-29T06:59:29.081Z,96.59
2018-12-29T07:00:28.931Z,96.76
2018-12-29T07:01:32.806Z,96.80
2018-12-29T07:02:29.169Z,96.80
2018-12-29T07:03:29.310Z,96.70
2018-12-29T07:04:29.521Z,96.91
2018-12-29T07:05:29.492Z,96.19
2018-12-29T07:06:29.618Z,95.67
2018-12-29T07:07:29.698Z,95.98
2018-12-29T07:08:29.821Z,96.08
2018-12-29T07:09:29.946Z,96.29
2018-12-29T07:10:30.035Z,96.59
2018-12-29T07:11:30.163Z,96.39
2018-12-29T07:12:30.287Z,96.80
2018-12-29T07:13:30.325Z,96.80
2018-12-29T07:14:30.471Z,96.70
2018-12-29T07:15:30.563Z,96.70
2018-12-29T07:16:30.713Z,96.45
2018-12-29T07:17:30.779Z,96.66
2018-12-29T07:18:30.909Z,96.59
2018-12-29T07:19:30.997Z,96.59
2018-12-29T07:20:31.134Z,96.91
2018-12-29T07:21:31.219Z,96.49
2018-12-29T07:22:31.324Z,97.11
2018-12-29T07:23:31.459Z,97.22
2018-12-29T07:24:31.565Z,96.91
2018-12-29T07:25:31.705Z,97.22
2018-12-29T07:26:31.760Z,96.80
2018-12-29T07:27:31.880Z,97.22
2018-12-29T07:28:32.025Z,97.01
2018-12-29T07:29:38.079Z,96.80
2018-12-29T07:30:33.177Z,97.11
2018-12-29T07:31:32.323Z,97.01
2018-12-29T07:32:32.417Z,97.01
2018-12-29T07:33:32.556Z,97.01
2018-12-29T07:34:32.657Z,96.39
2018-12-29T07:35:32.809Z,96.80
2018-12-29T07:36:32.874Z,96.91
2018-12-29T07:37:33.077Z,97.01
2018-12-29T07:38:33.099Z,96.76
2018-12-29T07:39:33.191Z,96.80
2018-12-29T07:40:33.284Z,96.66
2018-12-29T07:41:33.395Z,96.80
2018-12-29T07:42:33.487Z,96.80
2018-12-29T07:43:33.642Z,96.70
2018-12-29T07:44:33.743Z,96.76
2018-12-29T07:45:33.888Z,96.80
2018-12-29T07:46:33.923Z,96.70
2018-12-29T07:47:34.030Z,96.55
2018-12-29T07:48:34.171Z,96.03
2018-12-29T07:49:34.285Z,96.39
2018-12-29T07:50:34.375Z,96.91
2018-12-29T07:51:34.485Z,96.70
2018-12-29T07:52:34.622Z,96.39
2018-12-29T07:53:34.756Z,95.62
2018-12-29T07:54:34.801Z,96.08
2018-12-29T07:55:34.915Z,96.39
2018-12-29T07:56:35.023Z,96.80
2018-12-29T07:57:35.174Z,96.80
2018-12-29T07:58:35.234Z,96.80
2018-12-29T07:59:35.358Z,96.80
2018-12-29T08:00:35.432Z,96.80
2018-12-29T08:01:35.598Z,96.76
2018-12-29T08:02:35.724Z,96.59
2018-12-29T08:03:35.808Z,96.80
2018-12-29T08:04:35.921Z,97.01
2018-12-29T08:05:36.007Z,96.49
2018-12-29T08:06:36.101Z,96.59
2018-12-29T08:07:36.264Z,96.49
2018-12-29T08:08:36.333Z,96.80
2018-12-29T08:09:36.466Z,97.01
2018-12-29T08:10:36.655Z,97.01
2018-12-29T08:11:36.631Z,96.91
2018-12-29T08:12:36.782Z,97.01
2018-12-29T08:13:36.875Z,96.91
2018-12-29T08:14:36.987Z,96.70
2018-12-29T08:15:37.078Z,96.86
2018-12-29T08:16:37.186Z,97.11
2018-12-29T08:17:37.292Z,97.11
2018-12-29T08:18:37.495Z,97.01
2018-12-29T08:19:37.520Z,97.01
2018-12-29T08:20:37.606Z,96.91
2018-12-29T08:21:37.723Z,96.91
2018-12-29T08:22:37.832Z,96.91
2018-12-29T08:23:37.949Z,97.53
2018-12-29T08:24:38.092Z,97.32
2018-12-29T08:25:38.164Z,97.53
2018-12-29T08:26:38.346Z,97.07
2018-12-29T08:27:38.387Z,97.22
2018-12-29T08:28:38.477Z,97.01
2018-12-29T08:29:38.606Z,97.63
2018-12-29T08:30:38.712Z,97.28
2018-12-29T08:31:38.820Z,97.28
2018-12-29T08:32:38.949Z,97.69
2018-12-29T08:33:39.065Z,97.69
2018-12-29T08:34:39.180Z,97.63
2018-12-29T08:35:39.231Z,97.22
2018-12-29T08:36:39.371Z,97.32
2018-12-29T08:37:39.710Z,97.69
2018-12-29T08:38:39.597Z,97.89
2018-12-29T08:39:39.696Z,97.22
2018-12-29T08:40:39.794Z,97.59
2018-12-29T08:41:39.891Z,97.63
2018-12-29T08:42:40.079Z,97.84
2018-12-29T08:43:40.199Z,97.28
2018-12-29T08:44:40.252Z,97.79
2018-12-29T08:45:40.358Z,97.63
2018-12-29T08:46:40.466Z,97.53
2018-12-29T08:47:40.576Z,97.84
2018-12-29T08:48:40.695Z,97.84
2018-12-29T08:49:41.341Z,97.89
2018-12-29T08:50:40.942Z,97.94
2018-12-29T08:51:41.148Z,98.31
2018-12-29T08:52:41.133Z,98.46
2018-12-29T08:53:41.235Z,97.53
2018-12-29T08:54:41.384Z,97.42
2018-12-29T08:55:41.469Z,97.74
2018-12-29T08:56:41.581Z,97.53
2018-12-29T08:57:42.607Z,97.74
2018-12-29T08:58:41.768Z,97.63
2018-12-29T08:59:42.044Z,97.42
2018-12-29T09:00:42.022Z,97.74
2018-12-29T09:01:42.118Z,97.42
2018-12-29T09:02:42.243Z,97.63
2018-12-29T09:03:42.347Z,97.74
2018-12-29T09:04:42.443Z,97.84
2018-12-29T09:05:42.582Z,97.84
2018-12-29T09:06:42.677Z,98.56
2018-12-29T09:07:42.839Z,98.56
2018-12-29T09:08:42.894Z,97.63
2018-12-29T09:09:42.967Z,97.84
2018-12-29T09:10:43.110Z,98.35
2018-12-29T09:11:43.201Z,98.56
2018-12-29T09:12:43.327Z,98.35
2018-12-29T09:13:43.430Z,97.63
2018-12-29T09:14:43.523Z,97.89
2018-12-29T09:15:43.669Z,98.21
2018-12-29T09:16:43.721Z,97.74
2018-12-29T09:17:43.878Z,97.79
2018-12-29T09:18:49.714Z,97.69
2018-12-29T09:19:45.059Z,97.59
2018-12-29T09:20:44.198Z,97.79
2018-12-29T09:21:44.284Z,97.79
2018-12-29T09:22:44.386Z,98.00
2018-12-29T09:23:44.574Z,97.53
2018-12-29T09:24:44.651Z,97.89
2018-12-29T09:25:44.746Z,98.10
2018-12-29T09:26:44.821Z,98.10
2018-12-29T09:27:44.936Z,97.79
2018-12-29T09:28:45.042Z,97.38
2018-12-29T09:29:45.989Z,97.89
2018-12-29T09:30:45.300Z,97.38
2018-12-29T09:31:45.370Z,97.59
2018-12-29T09:32:45.615Z,97.38
2018-12-29T09:33:45.576Z,97.75
2018-12-29T09:34:45.719Z,97.79
2018-12-29T09:35:45.808Z,97.85
2018-12-29T09:36:45.898Z,97.59
2018-12-29T09:37:46.019Z,97.69
2018-12-29T09:38:46.107Z,98.00
2018-12-29T09:39:46.228Z,97.23
2018-12-29T09:40:46.472Z,96.82
2018-12-29T09:41:46.433Z,96.51
2018-12-29T09:42:46.561Z,96.72
2018-12-29T09:43:46.652Z,96.56
2018-12-29T09:44:46.765Z,95.74
2018-12-29T09:45:46.881Z,95.78
2018-12-29T09:46:46.972Z,96.47
2018-12-29T09:47:47.096Z,96.92
2018-12-29T09:48:47.208Z,97.02
2018-12-29T09:49:47.283Z,97.44
2018-12-29T09:50:47.381Z,97.54
2018-12-29T09:51:47.496Z,97.54
2018-12-29T09:52:47.602Z,97.33
2018-12-29T09:53:47.712Z,97.75
2018-12-29T09:54:47.846Z,97.33
2018-12-29T09:55:47.950Z,97.02
2018-12-29T09:56:48.107Z,97.33
2018-12-29T09:57:48.118Z,97.23
2018-12-29T09:58:48.249Z,97.44
2018-12-29T09:59:48.370Z,97.13
2018-12-29T10:00:48.488Z,97.64
2018-12-29T10:01:48.592Z,97.64
2018-12-29T10:02:48.678Z,97.33
2018-12-29T10:03:48.816Z,97.85
2018-12-29T10:04:48.965Z,97.44
2018-12-29T10:05:49.112Z,97.33
2018-12-29T10:06:49.174Z,97.23
2018-12-29T10:07:49.246Z,97.23
2018-12-29T10:08:49.368Z,97.23
2018-12-29T10:09:49.501Z,97.02
2018-12-29T10:10:49.596Z,97.75
2018-12-29T10:11:49.693Z,97.13
2018-12-29T10:12:49.801Z,97.44
2018-12-29T10:13:50.246Z,97.13
2018-12-29T10:14:50.024Z,97.44
2018-12-29T10:15:50.140Z,96.67
2018-12-29T10:16:50.233Z,96.77
2018-12-29T10:17:50.358Z,96.47
2018-12-29T10:18:50.457Z,97.08
2018-12-29T10:19:50.555Z,96.47
2018-12-29T10:20:50.676Z,96.67
2018-12-29T10:21:50.877Z,96.67
2018-12-29T10:22:50.884Z,97.08
2018-12-29T10:23:51.013Z,96.56
2018-12-29T10:24:51.170Z,96.26
2018-12-29T10:25:51.228Z,96.51
2018-12-29T10:26:51.334Z,96.47
2018-12-29T10:27:51.441Z,96.30
2018-12-29T10:28:51.571Z,96.67
2018-12-29T10:29:51.770Z,96.77
2018-12-29T10:30:51.750Z,96.56
2018-12-29T10:31:51.855Z,96.67
2018-12-29T10:32:51.981Z,96.77
2018-12-29T10:33:52.104Z,96.67
2018-12-29T10:34:52.205Z,96.67
2018-12-29T10:35:52.321Z,96.67
2018-12-29T10:36:52.412Z,96.15
2018-12-29T10:37:52.545Z,95.64
2018-12-29T10:38:52.621Z,95.43
2018-12-29T10:39:52.717Z,95.43
2018-12-29T10:40:52.853Z,94.97
2018-12-29T10:41:52.935Z,95.84
2018-12-29T10:42:53.073Z,95.49
2018-12-29T10:43:53.151Z,95.49
2018-12-29T10:44:53.269Z,94.87
2018-12-29T10:45:53.423Z,94.77
2018-12-29T10:46:53.583Z,94.72
2018-12-29T10:47:53.611Z,94.77
2018-12-29T10:48:53.712Z,94.87
2018-12-29T10:49:53.811Z,94.87
2018-12-29T10:50:53.936Z,94.87
2018-12-29T10:51:54.028Z,94.77
2018-12-29T10:52:54.127Z,94.46
2018-12-29T10:53:54.277Z,94.87
2018-12-29T10:54:54.464Z,95.22
2018-12-29T10:55:54.456Z,95.07
2018-12-29T10:56:54.562Z,95.53
2018-12-29T10:57:54.668Z,95.49
2018-12-29T10:58:54.821Z,95.49
2018-12-29T10:59:54.865Z,95.28
2018-12-29T11:00:55.021Z,95.49
2018-12-29T11:01:55.144Z,95.64
2018-12-29T11:02:55.377Z,95.64
2018-12-29T11:03:55.363Z,95.95
2018-12-29T11:04:55.438Z,95.64
2018-12-29T11:05:55.560Z,96.15
2018-12-29T11:06:55.692Z,96.56
2018-12-29T11:07:55.797Z,96.56
2018-12-29T11:08:55.930Z,96.56
2018-12-29T11:09:56.016Z,96.47
2018-12-29T11:10:56.173Z,96.56
2018-12-29T11:11:56.213Z,96.67
2018-12-29T11:12:56.326Z,96.77
2018-12-29T11:13:56.481Z,96.67
2018-12-29T11:14:56.533Z,96.88
2018-12-29T11:15:56.647Z,96.77
2018-12-29T11:16:56.774Z,97.08
2018-12-29T11:17:56.846Z,96.88
2018-12-29T11:18:57.037Z,96.88
2018-12-29T11:19:57.057Z,97.19
2018-12-29T11:20:57.202Z,97.08
2018-12-29T11:21:57.309Z,96.47
2018-12-29T11:22:57.398Z,96.36
2018-12-29T11:23:57.507Z,96.47
2018-12-29T11:24:57.591Z,96.47
2018-12-29T11:25:57.751Z,96.56
2018-12-29T11:26:57.908Z,96.88
2018-12-29T11:27:57.999Z,96.77
2018-12-29T11:28:58.047Z,96.67
2018-12-29T11:29:58.147Z,97.08
2018-12-29T11:30:58.287Z,96.77
2018-12-29T11:31:58.399Z,96.88
2018-12-29T11:32:58.495Z,96.67
2018-12-29T11:33:58.627Z,97.19
2018-12-29T11:34:58.726Z,96.77
2018-12-29T11:35:58.922Z,96.67
2018-12-29T11:36:58.936Z,96.67
2018-12-29T11:37:59.100Z,96.36
2018-12-29T11:38:59.141Z,96.88
2018-12-29T11:39:59.903Z,96.47
2018-12-29T11:40:59.356Z,96.47
2018-12-29T11:41:59.472Z,96.36
2018-12-29T11:42:59.563Z,96.56
2018-12-29T11:43:59.767Z,96.05
2018-12-29T11:44:59.797Z,96.73
2018-12-29T11:45:59.885Z,96.77
2018-12-29T11:46:59.998Z,96.62
2018-12-29T11:48:00.105Z,95.90
2018-12-29T11:49:01.950Z,95.28
2018-12-29T11:50:00.559Z,95.18
2018-12-29T11:51:00.451Z,94.56
2018-12-29T11:52:00.620Z,94.72
2018-12-29T11:53:00.610Z,94.72
2018-12-29T11:54:00.755Z,94.57
2018-12-29T11:55:00.847Z,94.82
2018-12-29T11:56:00.954Z,93.90
2018-12-29T11:57:01.108Z,94.10
2018-12-29T11:58:01.170Z,94.17
2018-12-29T11:59:01.276Z,93.91
2018-12-29T12:00:01.399Z,93.44
2018-12-29T12:01:01.490Z,93.65
2018-12-29T12:02:01.649Z,93.75
2018-12-29T12:03:01.709Z,93.65
2018-12-29T12:04:01.839Z,93.13
2018-12-29T12:05:01.905Z,93.44
2018-12-29T12:06:02.032Z,93.81
2018-12-29T12:07:02.199Z,93.03
2018-12-29T12:08:02.302Z,93.30
2018-12-29T12:09:02.483Z,93.44
2018-12-29T12:10:02.465Z,93.13
2018-12-29T12:11:02.592Z,93.54
2018-12-29T12:12:02.727Z,93.44
2018-12-29T12:13:02.808Z,93.44
2018-12-29T12:14:02.912Z,93.54
2018-12-29T12:15:03.028Z,92.99
2018-12-29T12:16:03.137Z,92.99
2018-12-29T12:17:03.384Z,93.50
2018-12-29T12:18:03.336Z,92.06
2018-12-29T12:19:03.446Z,92.12
2018-12-29T12:20:03.569Z,93.30
2018-12-29T12:21:03.698Z,92.16
2018-12-29T12:22:03.813Z,92.27
2018-12-29T12:23:03.895Z,92.16
2018-12-29T12:24:04.000Z,91.96
2018-12-29T12:25:04.178Z,92.16
2018-12-29T12:26:04.237Z,93.30
2018-12-29T12:27:04.358Z,92.78
2018-12-29T12:28:04.438Z,92.88
2018-12-29T12:29:04.560Z,92.99
2018-12-29T12:30:04.687Z,93.96
2018-12-29T12:31:04.775Z,93.34
2018-12-29T12:32:04.927Z,93.13
2018-12-29T12:33:05.012Z,93.75
2018-12-29T12:34:05.079Z,94.00
2018-12-29T12:35:05.229Z,93.59
2018-12-29T12:36:05.317Z,93.79
2018-12-29T12:37:05.473Z,94.10
2018-12-29T12:38:05.532Z,94.10
2018-12-29T12:39:05.636Z,94.27
2018-12-29T12:40:05.752Z,95.03
2018-12-29T12:41:05.908Z,93.85
2018-12-29T12:42:06.031Z,93.65
2018-12-29T12:43:06.093Z,93.75
2018-12-29T12:44:06.193Z,93.38
2018-12-29T12:45:06.309Z,93.38
2018-12-29T12:46:06.399Z,94.31
2018-12-29T12:47:06.566Z,93.90
2018-12-29T12:48:06.645Z,94.93
2018-12-29T12:49:06.761Z,94.87
2018-12-29T12:50:06.968Z,94.97
2018-12-29T12:51:06.973Z,95.28
2018-12-29T12:52:07.125Z,95.18
2018-12-29T12:53:07.194Z,95.80
2018-12-29T12:54:07.298Z,95.28